sensor_id;sensor_type;location;lat;lon;timestamp;P1;durP1;ratioP1;P2;durP2;ratioP2
21777;SDS011;11050;52.222;20.916;2023-11-19T00:00:16;48.93;;;24.70;;
21777;SDS011;11050;52.222;20.916;2023-11-19T00:02:42;48.53;;;24.73;;
21777;SDS011;11050;52.222;20.916;2023-11-19T00:05:08;50.17;;;23.57;;
21777;SDS011;11050;52.222;20.916;2023-11-19T00:07:36;51.83;;;25.23;;
21777;SDS011;11050;52.222;20.916;2023-11-19T00:10:09;48.20;;;23.70;;
21777;SDS011;11050;52.222;20.916;2023-11-19T00:12:37;52.47;;;25.30;;
21777;SDS011;11050;52.222;20.916;2023-11-19T00:15:09;51.33;;;24.97;;
21777;SDS011;11050;52.222;20.916;2023-11-19T00:17:39;47.23;;;23.37;;
21777;SDS011;11050;52.222;20.916;2023-11-19T00:20:19;46.73;;;23.13;;
21777;SDS011;11050;52.222;20.916;2023-11-19T00:22:48;48.30;;;23.13;;
21777;SDS011;11050;52.222;20.916;2023-11-19T00:25:16;45.53;;;23.00;;
21777;SDS011;11050;52.222;20.916;2023-11-19T00:27:49;54.73;;;25.73;;
21777;SDS011;11050;52.222;20.916;2023-11-19T00:30:16;54.67;;;25.23;;
21777;SDS011;11050;52.222;20.916;2023-11-19T00:32:42;54.03;;;25.70;;
21777;SDS011;11050;52.222;20.916;2023-11-19T00:35:08;54.87;;;25.50;;
21777;SDS011;11050;52.222;20.916;2023-11-19T00:37:39;56.33;;;26.00;;
21777;SDS011;11050;52.222;20.916;2023-11-19T00:40:05;53.00;;;25.83;;
21777;SDS011;11050;52.222;20.916;2023-11-19T00:42:31;53.60;;;25.33;;
21777;SDS011;11050;52.222;20.916;2023-11-19T00:44:57;55.70;;;26.97;;
21777;SDS011;11050;52.222;20.916;2023-11-19T00:47:23;54.67;;;25.30;;
21777;SDS011;11050;52.222;20.916;2023-11-19T00:49:49;61.10;;;28.00;;
21777;SDS011;11050;52.222;20.916;2023-11-19T00:52:15;58.90;;;25.57;;
21777;SDS011;11050;52.222;20.916;2023-11-19T00:54:42;56.10;;;25.70;;
21777;SDS011;11050;52.222;20.916;2023-11-19T00:57:08;58.33;;;25.80;;
21777;SDS011;11050;52.222;20.916;2023-11-19T00:59:33;48.40;;;24.60;;
21777;SDS011;11050;52.222;20.916;2023-11-19T01:01:59;58.80;;;26.27;;
21777;SDS011;11050;52.222;20.916;2023-11-19T01:04:29;52.07;;;24.60;;
21777;SDS011;11050;52.222;20.916;2023-11-19T01:07:01;57.93;;;26.20;;
21777;SDS011;11050;52.222;20.916;2023-11-19T01:09:33;54.43;;;26.50;;
21777;SDS011;11050;52.222;20.916;2023-11-19T01:12:00;60.17;;;27.50;;
21777;SDS011;11050;52.222;20.916;2023-11-19T01:14:28;55.33;;;25.67;;
21777;SDS011;11050;52.222;20.916;2023-11-19T01:16:54;52.17;;;25.37;;
21777;SDS011;11050;52.222;20.916;2023-11-19T01:19:21;54.90;;;26.27;;
21777;SDS011;11050;52.222;20.916;2023-11-19T01:21:48;53.97;;;25.63;;
21777;SDS011;11050;52.222;20.916;2023-11-19T01:24:14;52.77;;;24.80;;
21777;SDS011;11050;52.222;20.916;2023-11-19T01:26:40;53.77;;;24.63;;
21777;SDS011;11050;52.222;20.916;2023-11-19T01:29:15;53.00;;;25.60;;
21777;SDS011;11050;52.222;20.916;2023-11-19T01:31:41;53.93;;;25.57;;
21777;SDS011;11050;52.222;20.916;2023-11-19T01:34:11;48.20;;;23.87;;
21777;SDS011;11050;52.222;20.916;2023-11-19T01:36:37;50.17;;;25.00;;
21777;SDS011;11050;52.222;20.916;2023-11-19T01:39:04;55.70;;;25.40;;
21777;SDS011;11050;52.222;20.916;2023-11-19T01:41:33;51.73;;;25.03;;
21777;SDS011;11050;52.222;20.916;2023-11-19T01:44:05;56.23;;;26.57;;
21777;SDS011;11050;52.222;20.916;2023-11-19T01:46:31;59.63;;;26.87;;
21777;SDS011;11050;52.222;20.916;2023-11-19T01:48:57;53.37;;;24.73;;
21777;SDS011;11050;52.222;20.916;2023-11-19T01:51:25;54.00;;;26.23;;
21777;SDS011;11050;52.222;20.916;2023-11-19T01:53:52;56.07;;;25.17;;
21777;SDS011;11050;52.222;20.916;2023-11-19T01:56:18;52.23;;;25.73;;
21777;SDS011;11050;52.222;20.916;2023-11-19T01:58:47;56.27;;;26.20;;
21777;SDS011;11050;52.222;20.916;2023-11-19T02:01:15;56.90;;;25.83;;
21777;SDS011;11050;52.222;20.916;2023-11-19T02:03:41;54.37;;;25.87;;
21777;SDS011;11050;52.222;20.916;2023-11-19T02:06:07;56.13;;;25.83;;
21777;SDS011;11050;52.222;20.916;2023-11-19T02:08:35;49.70;;;24.53;;
21777;SDS011;11050;52.222;20.916;2023-11-19T02:11:02;46.13;;;24.40;;
21777;SDS011;11050;52.222;20.916;2023-11-19T02:13:28;52.40;;;24.43;;
21777;SDS011;11050;52.222;20.916;2023-11-19T02:15:54;50.23;;;25.07;;
21777;SDS011;11050;52.222;20.916;2023-11-19T02:18:23;53.43;;;25.43;;
21777;SDS011;11050;52.222;20.916;2023-11-19T02:20:55;54.93;;;25.80;;
21777;SDS011;11050;52.222;20.916;2023-11-19T02:23:23;51.47;;;24.90;;
21777;SDS011;11050;52.222;20.916;2023-11-19T02:28:30;50.90;;;24.97;;
21777;SDS011;11050;52.222;20.916;2023-11-19T02:30:58;54.47;;;25.10;;
21777;SDS011;11050;52.222;20.916;2023-11-19T02:33:24;51.53;;;24.47;;
21777;SDS011;11050;52.222;20.916;2023-11-19T02:35:50;50.57;;;23.77;;
21777;SDS011;11050;52.222;20.916;2023-11-19T02:38:16;53.80;;;25.00;;
21777;SDS011;11050;52.222;20.916;2023-11-19T02:40:42;55.80;;;24.80;;
21777;SDS011;11050;52.222;20.916;2023-11-19T02:43:07;50.70;;;24.03;;
21777;SDS011;11050;52.222;20.916;2023-11-19T02:45:33;54.87;;;24.27;;
21777;SDS011;11050;52.222;20.916;2023-11-19T02:47:59;50.80;;;24.20;;
21777;SDS011;11050;52.222;20.916;2023-11-19T02:50:27;49.83;;;23.47;;
21777;SDS011;11050;52.222;20.916;2023-11-19T02:52:54;57.77;;;25.10;;
21777;SDS011;11050;52.222;20.916;2023-11-19T02:55:21;53.83;;;24.23;;
21777;SDS011;11050;52.222;20.916;2023-11-19T02:57:49;51.63;;;22.87;;
21777;SDS011;11050;52.222;20.916;2023-11-19T03:00:15;51.83;;;23.40;;
21777;SDS011;11050;52.222;20.916;2023-11-19T03:02:50;51.90;;;22.57;;
21777;SDS011;11050;52.222;20.916;2023-11-19T03:05:39;49.70;;;23.00;;
21777;SDS011;11050;52.222;20.916;2023-11-19T03:08:05;52.07;;;23.73;;
21777;SDS011;11050;52.222;20.916;2023-11-19T03:10:32;51.43;;;23.80;;
21777;SDS011;11050;52.222;20.916;2023-11-19T03:12:59;48.93;;;24.33;;
21777;SDS011;11050;52.222;20.916;2023-11-19T03:15:27;52.67;;;22.93;;
21777;SDS011;11050;52.222;20.916;2023-11-19T03:17:52;47.00;;;21.80;;
21777;SDS011;11050;52.222;20.916;2023-11-19T03:20:19;47.30;;;20.73;;
21777;SDS011;11050;52.222;20.916;2023-11-19T03:22:45;45.77;;;20.57;;
21777;SDS011;11050;52.222;20.916;2023-11-19T03:25:11;47.90;;;22.43;;
21777;SDS011;11050;52.222;20.916;2023-11-19T03:27:38;44.67;;;21.30;;
21777;SDS011;11050;52.222;20.916;2023-11-19T03:30:07;45.30;;;20.70;;
21777;SDS011;11050;52.222;20.916;2023-11-19T03:32:37;46.57;;;21.40;;
21777;SDS011;11050;52.222;20.916;2023-11-19T03:35:04;42.73;;;21.37;;
21777;SDS011;11050;52.222;20.916;2023-11-19T03:37:34;45.97;;;21.50;;
21777;SDS011;11050;52.222;20.916;2023-11-19T03:40:00;50.53;;;23.73;;
21777;SDS011;11050;52.222;20.916;2023-11-19T03:42:26;48.43;;;21.77;;
21777;SDS011;11050;52.222;20.916;2023-11-19T03:44:52;49.83;;;22.67;;
21777;SDS011;11050;52.222;20.916;2023-11-19T03:47:19;43.57;;;19.90;;
21777;SDS011;11050;52.222;20.916;2023-11-19T03:49:51;42.23;;;20.63;;
21777;SDS011;11050;52.222;20.916;2023-11-19T03:52:17;43.83;;;20.10;;
21777;SDS011;11050;52.222;20.916;2023-11-19T03:54:44;42.00;;;20.47;;
21777;SDS011;11050;52.222;20.916;2023-11-19T03:57:10;42.73;;;20.43;;
21777;SDS011;11050;52.222;20.916;2023-11-19T03:59:40;36.87;;;18.43;;
21777;SDS011;11050;52.222;20.916;2023-11-19T04:02:06;43.27;;;20.00;;
21777;SDS011;11050;52.222;20.916;2023-11-19T04:04:32;40.03;;;19.90;;
21777;SDS011;11050;52.222;20.916;2023-11-19T04:06:58;43.60;;;18.47;;
21777;SDS011;11050;52.222;20.916;2023-11-19T04:09:26;40.40;;;20.07;;
21777;SDS011;11050;52.222;20.916;2023-11-19T04:11:52;38.43;;;19.37;;
21777;SDS011;11050;52.222;20.916;2023-11-19T04:14:17;36.20;;;18.47;;
21777;SDS011;11050;52.222;20.916;2023-11-19T04:16:43;39.00;;;18.60;;
21777;SDS011;11050;52.222;20.916;2023-11-19T04:19:10;40.57;;;19.57;;
21777;SDS011;11050;52.222;20.916;2023-11-19T04:21:36;39.93;;;18.73;;
21777;SDS011;11050;52.222;20.916;2023-11-19T04:24:06;41.67;;;20.07;;
21777;SDS011;11050;52.222;20.916;2023-11-19T04:26:33;41.40;;;18.33;;
21777;SDS011;11050;52.222;20.916;2023-11-19T04:28:59;42.37;;;20.47;;
21777;SDS011;11050;52.222;20.916;2023-11-19T04:31:28;43.47;;;19.53;;
21777;SDS011;11050;52.222;20.916;2023-11-19T04:33:56;38.37;;;17.90;;
21777;SDS011;11050;52.222;20.916;2023-11-19T04:36:22;42.77;;;20.30;;
21777;SDS011;11050;52.222;20.916;2023-11-19T04:38:49;42.43;;;20.43;;
21777;SDS011;11050;52.222;20.916;2023-11-19T04:41:15;37.47;;;18.13;;
21777;SDS011;11050;52.222;20.916;2023-11-19T04:43:41;43.63;;;20.47;;
21777;SDS011;11050;52.222;20.916;2023-11-19T04:46:07;39.53;;;19.17;;
21777;SDS011;11050;52.222;20.916;2023-11-19T04:48:34;38.57;;;18.60;;
21777;SDS011;11050;52.222;20.916;2023-11-19T04:51:00;38.73;;;19.13;;
21777;SDS011;11050;52.222;20.916;2023-11-19T04:53:26;37.77;;;18.37;;
21777;SDS011;11050;52.222;20.916;2023-11-19T04:55:51;39.10;;;19.90;;
21777;SDS011;11050;52.222;20.916;2023-11-19T04:58:17;37.30;;;19.10;;
21777;SDS011;11050;52.222;20.916;2023-11-19T05:00:44;42.73;;;19.57;;
21777;SDS011;11050;52.222;20.916;2023-11-19T05:03:10;41.67;;;19.50;;
21777;SDS011;11050;52.222;20.916;2023-11-19T05:05:36;40.47;;;19.27;;
21777;SDS011;11050;52.222;20.916;2023-11-19T05:08:01;43.57;;;20.27;;
21777;SDS011;11050;52.222;20.916;2023-11-19T05:10:27;38.30;;;17.83;;
21777;SDS011;11050;52.222;20.916;2023-11-19T05:12:53;38.53;;;19.40;;
21777;SDS011;11050;52.222;20.916;2023-11-19T05:15:21;42.77;;;19.23;;
21777;SDS011;11050;52.222;20.916;2023-11-19T05:17:47;46.13;;;19.87;;
21777;SDS011;11050;52.222;20.916;2023-11-19T05:20:13;48.20;;;21.80;;
21777;SDS011;11050;52.222;20.916;2023-11-19T05:22:39;45.97;;;21.23;;
21777;SDS011;11050;52.222;20.916;2023-11-19T05:25:06;44.43;;;20.73;;
21777;SDS011;11050;52.222;20.916;2023-11-19T05:27:33;41.23;;;19.57;;
21777;SDS011;11050;52.222;20.916;2023-11-19T05:30:04;45.00;;;20.87;;
21777;SDS011;11050;52.222;20.916;2023-11-19T05:32:32;46.17;;;20.53;;
21777;SDS011;11050;52.222;20.916;2023-11-19T05:34:58;42.30;;;19.60;;
21777;SDS011;11050;52.222;20.916;2023-11-19T05:37:24;45.10;;;20.30;;
21777;SDS011;11050;52.222;20.916;2023-11-19T05:39:50;47.43;;;21.10;;
21777;SDS011;11050;52.222;20.916;2023-11-19T05:42:16;43.70;;;19.67;;
21777;SDS011;11050;52.222;20.916;2023-11-19T05:44:42;47.97;;;20.73;;
21777;SDS011;11050;52.222;20.916;2023-11-19T05:47:08;46.13;;;21.00;;
21777;SDS011;11050;52.222;20.916;2023-11-19T05:49:33;51.83;;;20.70;;
21777;SDS011;11050;52.222;20.916;2023-11-19T05:51:59;42.77;;;19.67;;
21777;SDS011;11050;52.222;20.916;2023-11-19T05:54:26;44.93;;;21.03;;
21777;SDS011;11050;52.222;20.916;2023-11-19T05:56:52;47.80;;;20.10;;
21777;SDS011;11050;52.222;20.916;2023-11-19T05:59:19;39.93;;;19.70;;
21777;SDS011;11050;52.222;20.916;2023-11-19T06:01:45;48.23;;;21.87;;
21777;SDS011;11050;52.222;20.916;2023-11-19T06:04:11;43.53;;;19.63;;
21777;SDS011;11050;52.222;20.916;2023-11-19T06:06:37;45.40;;;20.30;;
21777;SDS011;11050;52.222;20.916;2023-11-19T06:09:03;42.67;;;19.00;;
21777;SDS011;11050;52.222;20.916;2023-11-19T06:11:30;43.50;;;19.33;;
21777;SDS011;11050;52.222;20.916;2023-11-19T06:13:56;41.93;;;18.27;;
21777;SDS011;11050;52.222;20.916;2023-11-19T06:16:23;39.03;;;18.30;;
21777;SDS011;11050;52.222;20.916;2023-11-19T06:18:48;34.60;;;16.40;;
21777;SDS011;11050;52.222;20.916;2023-11-19T06:21:14;38.33;;;16.87;;
21777;SDS011;11050;52.222;20.916;2023-11-19T06:23:40;33.97;;;16.30;;
21777;SDS011;11050;52.222;20.916;2023-11-19T06:26:05;32.43;;;15.83;;
21777;SDS011;11050;52.222;20.916;2023-11-19T06:28:31;31.53;;;15.30;;
21777;SDS011;11050;52.222;20.916;2023-11-19T06:30:57;30.50;;;15.07;;
21777;SDS011;11050;52.222;20.916;2023-11-19T06:33:23;28.10;;;14.60;;
21777;SDS011;11050;52.222;20.916;2023-11-19T06:35:49;28.53;;;13.20;;
21777;SDS011;11050;52.222;20.916;2023-11-19T06:38:15;27.87;;;13.37;;
21777;SDS011;11050;52.222;20.916;2023-11-19T06:40:41;25.90;;;12.30;;
21777;SDS011;11050;52.222;20.916;2023-11-19T06:43:07;25.03;;;12.23;;
21777;SDS011;11050;52.222;20.916;2023-11-19T06:45:35;23.60;;;12.03;;
21777;SDS011;11050;52.222;20.916;2023-11-19T06:48:04;24.60;;;11.67;;
21777;SDS011;11050;52.222;20.916;2023-11-19T06:50:30;17.93;;;9.90;;
21777;SDS011;11050;52.222;20.916;2023-11-19T06:52:57;16.97;;;9.73;;
21777;SDS011;11050;52.222;20.916;2023-11-19T06:55:23;16.07;;;9.67;;
21777;SDS011;11050;52.222;20.916;2023-11-19T06:57:49;17.90;;;9.93;;
21777;SDS011;11050;52.222;20.916;2023-11-19T07:00:14;18.13;;;9.33;;
21777;SDS011;11050;52.222;20.916;2023-11-19T07:02:41;19.23;;;9.93;;
21777;SDS011;11050;52.222;20.916;2023-11-19T07:05:09;20.00;;;10.73;;
21777;SDS011;11050;52.222;20.916;2023-11-19T07:07:37;22.23;;;11.70;;
21777;SDS011;11050;52.222;20.916;2023-11-19T07:10:02;21.37;;;11.37;;
21777;SDS011;11050;52.222;20.916;2023-11-19T07:12:29;19.10;;;10.57;;
21777;SDS011;11050;52.222;20.916;2023-11-19T07:14:56;15.63;;;9.67;;
21777;SDS011;11050;52.222;20.916;2023-11-19T07:17:21;15.57;;;9.30;;
21777;SDS011;11050;52.222;20.916;2023-11-19T07:19:49;17.70;;;9.97;;
21777;SDS011;11050;52.222;20.916;2023-11-19T07:22:16;19.07;;;10.30;;
21777;SDS011;11050;52.222;20.916;2023-11-19T07:24:42;14.27;;;8.53;;
21777;SDS011;11050;52.222;20.916;2023-11-19T07:27:08;14.80;;;9.20;;
21777;SDS011;11050;52.222;20.916;2023-11-19T07:29:34;15.57;;;10.00;;
21777;SDS011;11050;52.222;20.916;2023-11-19T07:32:00;16.70;;;9.57;;
21777;SDS011;11050;52.222;20.916;2023-11-19T07:34:30;17.03;;;9.37;;
21777;SDS011;11050;52.222;20.916;2023-11-19T07:36:55;17.27;;;10.10;;
21777;SDS011;11050;52.222;20.916;2023-11-19T07:39:27;16.93;;;9.50;;
21777;SDS011;11050;52.222;20.916;2023-11-19T07:41:53;17.83;;;10.37;;
21777;SDS011;11050;52.222;20.916;2023-11-19T07:44:19;16.90;;;10.17;;
21777;SDS011;11050;52.222;20.916;2023-11-19T07:46:46;16.17;;;9.33;;
21777;SDS011;11050;52.222;20.916;2023-11-19T07:49:13;17.20;;;10.27;;
21777;SDS011;11050;52.222;20.916;2023-11-19T07:51:39;15.47;;;8.93;;
21777;SDS011;11050;52.222;20.916;2023-11-19T07:54:05;15.53;;;9.17;;
21777;SDS011;11050;52.222;20.916;2023-11-19T07:56:34;14.00;;;9.13;;
21777;SDS011;11050;52.222;20.916;2023-11-19T07:59:02;17.77;;;10.67;;
21777;SDS011;11050;52.222;20.916;2023-11-19T08:01:28;16.60;;;10.17;;
21777;SDS011;11050;52.222;20.916;2023-11-19T08:03:54;17.73;;;11.33;;
21777;SDS011;11050;52.222;20.916;2023-11-19T08:06:20;17.40;;;10.33;;
21777;SDS011;11050;52.222;20.916;2023-11-19T08:08:46;18.57;;;10.40;;
21777;SDS011;11050;52.222;20.916;2023-11-19T08:11:13;18.00;;;10.10;;
21777;SDS011;11050;52.222;20.916;2023-11-19T08:13:40;18.47;;;11.50;;
21777;SDS011;11050;52.222;20.916;2023-11-19T08:16:06;17.70;;;11.17;;
21777;SDS011;11050;52.222;20.916;2023-11-19T08:18:32;18.53;;;10.80;;
21777;SDS011;11050;52.222;20.916;2023-11-19T08:20:57;19.20;;;11.27;;
21777;SDS011;11050;52.222;20.916;2023-11-19T08:23:25;19.00;;;11.17;;
21777;SDS011;11050;52.222;20.916;2023-11-19T08:25:51;17.87;;;10.77;;
21777;SDS011;11050;52.222;20.916;2023-11-19T08:28:17;20.23;;;11.77;;
21777;SDS011;11050;52.222;20.916;2023-11-19T08:30:43;19.60;;;11.33;;
21777;SDS011;11050;52.222;20.916;2023-11-19T08:33:09;17.77;;;11.17;;
21777;SDS011;11050;52.222;20.916;2023-11-19T08:35:35;19.37;;;11.97;;
21777;SDS011;11050;52.222;20.916;2023-11-19T08:38:00;22.97;;;12.07;;
21777;SDS011;11050;52.222;20.916;2023-11-19T08:40:26;20.43;;;11.70;;
21777;SDS011;11050;52.222;20.916;2023-11-19T08:42:53;19.37;;;11.47;;
21777;SDS011;11050;52.222;20.916;2023-11-19T08:45:18;19.57;;;11.53;;
21777;SDS011;11050;52.222;20.916;2023-11-19T08:47:44;18.70;;;11.33;;
21777;SDS011;11050;52.222;20.916;2023-11-19T08:50:10;21.97;;;12.17;;
21777;SDS011;11050;52.222;20.916;2023-11-19T08:52:36;19.43;;;11.33;;
21777;SDS011;11050;52.222;20.916;2023-11-19T08:55:03;20.63;;;12.27;;
21777;SDS011;11050;52.222;20.916;2023-11-19T08:57:34;20.90;;;12.00;;
21777;SDS011;11050;52.222;20.916;2023-11-19T09:00:00;19.27;;;11.23;;
21777;SDS011;11050;52.222;20.916;2023-11-19T09:02:28;19.33;;;11.30;;
21777;SDS011;11050;52.222;20.916;2023-11-19T09:04:53;24.17;;;11.30;;
21777;SDS011;11050;52.222;20.916;2023-11-19T09:07:19;19.97;;;11.97;;
21777;SDS011;11050;52.222;20.916;2023-11-19T09:09:46;19.17;;;11.10;;
21777;SDS011;11050;52.222;20.916;2023-11-19T09:12:11;20.47;;;11.70;;
21777;SDS011;11050;52.222;20.916;2023-11-19T09:14:38;20.33;;;11.87;;
21777;SDS011;11050;52.222;20.916;2023-11-19T09:17:04;19.73;;;11.40;;
21777;SDS011;11050;52.222;20.916;2023-11-19T09:19:32;19.97;;;11.37;;
21777;SDS011;11050;52.222;20.916;2023-11-19T09:21:58;19.67;;;11.20;;
21777;SDS011;11050;52.222;20.916;2023-11-19T09:24:24;20.00;;;11.53;;
21777;SDS011;11050;52.222;20.916;2023-11-19T09:26:49;20.33;;;12.23;;
21777;SDS011;11050;52.222;20.916;2023-11-19T09:29:15;19.67;;;11.80;;
21777;SDS011;11050;52.222;20.916;2023-11-19T09:31:41;17.60;;;11.10;;
21777;SDS011;11050;52.222;20.916;2023-11-19T09:34:07;18.80;;;11.30;;
21777;SDS011;11050;52.222;20.916;2023-11-19T09:36:33;19.87;;;11.60;;
21777;SDS011;11050;52.222;20.916;2023-11-19T09:38:58;19.87;;;11.13;;
21777;SDS011;11050;52.222;20.916;2023-11-19T09:41:27;19.93;;;12.30;;
21777;SDS011;11050;52.222;20.916;2023-11-19T09:43:53;22.73;;;12.87;;
21777;SDS011;11050;52.222;20.916;2023-11-19T09:46:18;19.20;;;11.47;;
21777;SDS011;11050;52.222;20.916;2023-11-19T09:48:46;22.23;;;12.07;;
21777;SDS011;11050;52.222;20.916;2023-11-19T09:51:13;22.43;;;13.47;;
21777;SDS011;11050;52.222;20.916;2023-11-19T09:53:39;22.77;;;13.03;;
21777;SDS011;11050;52.222;20.916;2023-11-19T09:56:05;22.27;;;12.53;;
21777;SDS011;11050;52.222;20.916;2023-11-19T09:58:33;21.83;;;12.53;;
21777;SDS011;11050;52.222;20.916;2023-11-19T10:00:59;21.37;;;12.43;;
21777;SDS011;11050;52.222;20.916;2023-11-19T10:03:28;23.83;;;12.33;;
21777;SDS011;11050;52.222;20.916;2023-11-19T10:06:00;21.30;;;11.87;;
21777;SDS011;11050;52.222;20.916;2023-11-19T10:08:27;22.73;;;12.57;;
21777;SDS011;11050;52.222;20.916;2023-11-19T10:10:54;22.30;;;12.60;;
21777;SDS011;11050;52.222;20.916;2023-11-19T10:13:20;21.93;;;12.97;;
21777;SDS011;11050;52.222;20.916;2023-11-19T10:15:53;20.27;;;12.00;;
21777;SDS011;11050;52.222;20.916;2023-11-19T10:18:23;23.67;;;12.63;;
21777;SDS011;11050;52.222;20.916;2023-11-19T10:20:51;22.70;;;13.30;;
21777;SDS011;11050;52.222;20.916;2023-11-19T10:23:18;20.90;;;12.37;;
21777;SDS011;11050;52.222;20.916;2023-11-19T10:25:44;21.87;;;12.20;;
21777;SDS011;11050;52.222;20.916;2023-11-19T10:28:10;20.27;;;11.43;;
21777;SDS011;11050;52.222;20.916;2023-11-19T10:30:35;21.07;;;12.50;;
21777;SDS011;11050;52.222;20.916;2023-11-19T10:33:11;22.00;;;12.53;;
21777;SDS011;11050;52.222;20.916;2023-11-19T10:35:55;21.17;;;12.93;;
21777;SDS011;11050;52.222;20.916;2023-11-19T10:38:22;24.73;;;13.43;;
21777;SDS011;11050;52.222;20.916;2023-11-19T10:40:50;22.77;;;12.50;;
21777;SDS011;11050;52.222;20.916;2023-11-19T10:43:17;22.33;;;13.10;;
21777;SDS011;11050;52.222;20.916;2023-11-19T10:45:50;22.67;;;14.03;;
21777;SDS011;11050;52.222;20.916;2023-11-19T10:48:17;25.07;;;13.67;;
21777;SDS011;11050;52.222;20.916;2023-11-19T10:50:43;23.87;;;13.00;;
21777;SDS011;11050;52.222;20.916;2023-11-19T10:53:14;24.07;;;13.03;;
21777;SDS011;11050;52.222;20.916;2023-11-19T10:55:43;22.73;;;13.53;;
21777;SDS011;11050;52.222;20.916;2023-11-19T10:58:13;24.53;;;13.77;;
21777;SDS011;11050;52.222;20.916;2023-11-19T11:00:45;26.07;;;13.27;;
21777;SDS011;11050;52.222;20.916;2023-11-19T11:03:18;21.80;;;12.27;;
21777;SDS011;11050;52.222;20.916;2023-11-19T11:05:49;24.83;;;14.30;;
21777;SDS011;11050;52.222;20.916;2023-11-19T11:08:17;21.40;;;12.33;;
21777;SDS011;11050;52.222;20.916;2023-11-19T11:11:03;22.20;;;12.73;;
21777;SDS011;11050;52.222;20.916;2023-11-19T11:13:31;25.67;;;13.23;;
21777;SDS011;11050;52.222;20.916;2023-11-19T11:15:58;21.93;;;12.93;;
21777;SDS011;11050;52.222;20.916;2023-11-19T11:18:25;24.30;;;12.83;;
21777;SDS011;11050;52.222;20.916;2023-11-19T11:20:52;22.67;;;12.73;;
21777;SDS011;11050;52.222;20.916;2023-11-19T11:33:04;23.80;;;13.10;;
21777;SDS011;11050;52.222;20.916;2023-11-19T11:36:40;22.70;;;13.60;;
21777;SDS011;11050;52.222;20.916;2023-11-19T11:38:47;23.60;;;12.50;;
21777;SDS011;11050;52.222;20.916;2023-11-19T11:41:18;25.60;;;14.53;;
21777;SDS011;11050;52.222;20.916;2023-11-19T11:43:49;22.53;;;12.40;;
21777;SDS011;11050;52.222;20.916;2023-11-19T11:48:59;23.80;;;12.80;;
21777;SDS011;11050;52.222;20.916;2023-11-19T11:54:09;23.83;;;13.37;;
21777;SDS011;11050;52.222;20.916;2023-11-19T12:02:14;24.00;;;13.23;;
21777;SDS011;11050;52.222;20.916;2023-11-19T12:04:50;24.10;;;14.03;;
21777;SDS011;11050;52.222;20.916;2023-11-19T12:07:18;23.67;;;13.47;;
21777;SDS011;11050;52.222;20.916;2023-11-19T12:09:48;25.57;;;13.70;;
21777;SDS011;11050;52.222;20.916;2023-11-19T12:12:32;31.73;;;14.93;;
21777;SDS011;11050;52.222;20.916;2023-11-19T12:20:05;27.03;;;15.17;;
21777;SDS011;11050;52.222;20.916;2023-11-19T12:22:39;30.20;;;14.70;;
21777;SDS011;11050;52.222;20.916;2023-11-19T12:25:07;28.50;;;15.00;;
21777;SDS011;11050;52.222;20.916;2023-11-19T12:27:37;27.97;;;14.60;;
21777;SDS011;11050;52.222;20.916;2023-11-19T12:30:10;24.50;;;14.93;;
21777;SDS011;11050;52.222;20.916;2023-11-19T12:32:39;27.60;;;13.43;;
21777;SDS011;11050;52.222;20.916;2023-11-19T12:35:07;25.33;;;14.87;;
21777;SDS011;11050;52.222;20.916;2023-11-19T12:37:46;26.37;;;14.57;;
21777;SDS011;11050;52.222;20.916;2023-11-19T12:40:17;27.20;;;15.00;;
21777;SDS011;11050;52.222;20.916;2023-11-19T12:42:51;30.23;;;14.43;;
21777;SDS011;11050;52.222;20.916;2023-11-19T12:45:21;28.47;;;15.07;;
21777;SDS011;11050;52.222;20.916;2023-11-19T12:47:48;26.37;;;14.23;;
21777;SDS011;11050;52.222;20.916;2023-11-19T12:50:17;29.63;;;15.37;;
21777;SDS011;11050;52.222;20.916;2023-11-19T12:52:54;27.60;;;15.27;;
21777;SDS011;11050;52.222;20.916;2023-11-19T12:55:27;26.20;;;13.53;;
21777;SDS011;11050;52.222;20.916;2023-11-19T12:57:54;27.83;;;14.47;;
21777;SDS011;11050;52.222;20.916;2023-11-19T13:00:22;28.93;;;14.90;;
21777;SDS011;11050;52.222;20.916;2023-11-19T13:02:54;29.83;;;14.97;;
21777;SDS011;11050;52.222;20.916;2023-11-19T13:08:00;27.30;;;14.10;;
21777;SDS011;11050;52.222;20.916;2023-11-19T13:10:29;25.97;;;13.67;;
21777;SDS011;11050;52.222;20.916;2023-11-19T13:13:14;24.43;;;13.63;;
21777;SDS011;11050;52.222;20.916;2023-11-19T13:15:40;25.63;;;14.30;;
21777;SDS011;11050;52.222;20.916;2023-11-19T13:18:06;28.13;;;14.37;;
21777;SDS011;11050;52.222;20.916;2023-11-19T13:20:32;27.80;;;13.30;;
21777;SDS011;11050;52.222;20.916;2023-11-19T13:22:58;24.80;;;14.00;;
21777;SDS011;11050;52.222;20.916;2023-11-19T13:25:28;23.03;;;13.53;;
21777;SDS011;11050;52.222;20.916;2023-11-19T13:27:55;27.07;;;15.20;;
21777;SDS011;11050;52.222;20.916;2023-11-19T13:30:22;26.37;;;14.17;;
21777;SDS011;11050;52.222;20.916;2023-11-19T13:32:49;24.03;;;13.33;;
21777;SDS011;11050;52.222;20.916;2023-11-19T13:35:16;26.03;;;13.80;;
21777;SDS011;11050;52.222;20.916;2023-11-19T13:37:43;25.60;;;13.77;;
21777;SDS011;11050;52.222;20.916;2023-11-19T13:40:10;28.67;;;14.07;;
21777;SDS011;11050;52.222;20.916;2023-11-19T13:42:42;26.93;;;14.63;;
21777;SDS011;11050;52.222;20.916;2023-11-19T13:45:09;27.37;;;13.77;;
21777;SDS011;11050;52.222;20.916;2023-11-19T13:47:37;27.47;;;15.60;;
21777;SDS011;11050;52.222;20.916;2023-11-19T13:50:09;27.80;;;14.93;;
21777;SDS011;11050;52.222;20.916;2023-11-19T13:52:40;27.83;;;15.53;;
21777;SDS011;11050;52.222;20.916;2023-11-19T13:55:09;29.47;;;15.10;;
21777;SDS011;11050;52.222;20.916;2023-11-19T13:57:36;27.53;;;15.33;;
21777;SDS011;11050;52.222;20.916;2023-11-19T14:00:04;29.97;;;15.70;;
21777;SDS011;11050;52.222;20.916;2023-11-19T14:02:35;28.47;;;15.77;;
21777;SDS011;11050;52.222;20.916;2023-11-19T14:05:01;31.83;;;16.47;;
21777;SDS011;11050;52.222;20.916;2023-11-19T14:07:28;29.80;;;16.17;;
21777;SDS011;11050;52.222;20.916;2023-11-19T14:09:54;26.73;;;14.97;;
21777;SDS011;11050;52.222;20.916;2023-11-19T14:12:19;29.30;;;14.83;;
21777;SDS011;11050;52.222;20.916;2023-11-19T14:14:45;31.30;;;16.43;;
21777;SDS011;11050;52.222;20.916;2023-11-19T14:17:11;27.27;;;14.77;;
21777;SDS011;11050;52.222;20.916;2023-11-19T14:19:37;34.07;;;17.13;;
21777;SDS011;11050;52.222;20.916;2023-11-19T14:22:04;30.93;;;14.40;;
21777;SDS011;11050;52.222;20.916;2023-11-19T14:24:30;30.20;;;15.43;;
21777;SDS011;11050;52.222;20.916;2023-11-19T14:26:56;30.27;;;16.63;;
21777;SDS011;11050;52.222;20.916;2023-11-19T14:29:24;30.37;;;15.23;;
21777;SDS011;11050;52.222;20.916;2023-11-19T14:31:54;27.53;;;15.17;;
21777;SDS011;11050;52.222;20.916;2023-11-19T14:34:20;32.60;;;18.13;;
21777;SDS011;11050;52.222;20.916;2023-11-19T14:36:47;33.63;;;16.93;;
21777;SDS011;11050;52.222;20.916;2023-11-19T14:39:13;32.03;;;15.87;;
21777;SDS011;11050;52.222;20.916;2023-11-19T14:41:39;36.57;;;18.13;;